createdAt,value
2017-09-27T00:00:27.988Z,0
2017-09-27T00:01:40.467Z,0
2017-09-27T00:02:52.961Z,0
2017-09-27T00:04:05.434Z,0
2017-09-27T00:05:17.928Z,0
2017-09-27T00:06:30.125Z,0
2017-09-27T00:07:42.612Z,0
2017-09-27T00:08:55.091Z,0
2017-09-27T00:10:07.278Z,0
2017-09-27T00:11:19.782Z,0
2017-09-27T00:12:32.277Z,0
2017-09-27T00:13:44.477Z,0
2017-09-27T00:14:56.961Z,0
2017-09-27T00:16:09.466Z,0
2017-09-27T00:17:21.635Z,0
2017-09-27T00:18:34.136Z,0
2017-09-27T00:19:46.626Z,0
2017-09-27T00:20:58.823Z,0
2017-09-27T00:22:11.010Z,0
2017-09-27T00:23:23.505Z,0
2017-09-27T00:24:35.679Z,0
2017-09-27T00:25:48.178Z,0
2017-09-27T00:27:00.652Z,0
2017-09-27T00:28:13.147Z,0
2017-09-27T00:29:25.642Z,0
2017-09-27T00:30:38.137Z,0
2017-09-27T00:31:50.333Z,0
2017-09-27T00:33:02.828Z,0
2017-09-27T00:34:14.998Z,0
2017-09-27T00:35:27.495Z,0
2017-09-27T00:36:39.665Z,0
2017-09-27T00:37:51.835Z,0
2017-09-27T00:39:04.331Z,0
2017-09-27T00:40:16.202Z,0
2017-09-27T00:41:28.423Z,0
2017-09-27T00:42:40.593Z,0
2017-09-27T00:43:53.090Z,0
2017-09-27T00:45:05.584Z,0
2017-09-27T00:46:17.756Z,0
2017-09-27T00:47:29.926Z,0
2017-09-27T00:48:42.122Z,0
2017-09-27T00:49:54.593Z,0
2017-09-27T00:51:07.063Z,0
2017-09-27T00:52:19.534Z,0
2017-09-27T00:53:31.705Z,0
2017-09-27T00:54:44.204Z,0
2017-09-27T00:55:56.696Z,0
2017-09-27T00:57:08.891Z,0
2017-09-27T00:58:21.386Z,0
2017-09-27T00:59:33.602Z,0
2017-09-27T01:00:45.803Z,0
2017-09-27T01:01:58.292Z,0
2017-09-27T01:03:10.797Z,0
2017-09-27T01:04:23.290Z,0
2017-09-27T01:05:35.461Z,0
2017-09-27T01:06:47.957Z,0
2017-09-27T01:08:00.478Z,0
2017-09-27T01:09:12.648Z,0
2017-09-27T01:10:25.136Z,0
2017-09-27T01:11:37.639Z,0
2017-09-27T01:12:50.134Z,0
2017-09-27T01:14:02.333Z,0
2017-09-27T01:15:14.818Z,0
2017-09-27T01:16:27.314Z,0
2017-09-27T01:17:39.492Z,0
2017-09-27T01:18:52.014Z,0
2017-09-27T01:20:04.187Z,0
2017-09-27T01:21:16.384Z,0
2017-09-27T01:22:28.275Z,0
2017-09-27T01:23:40.770Z,0
2017-09-27T01:24:52.942Z,0
2017-09-27T01:26:05.138Z,0
2017-09-27T01:27:17.632Z,0
2017-09-27T01:28:30.133Z,0
2017-09-27T01:29:41.716Z,0
2017-09-27T01:30:54.219Z,0
2017-09-27T01:32:06.715Z,0
2017-09-27T01:33:19.186Z,0
2017-09-27T01:34:31.400Z,0
2017-09-27T01:35:43.603Z,0
2017-09-27T01:36:56.098Z,0
2017-09-27T01:38:08.594Z,0
2017-09-27T01:39:20.768Z,0
2017-09-27T01:40:32.939Z,0
2017-09-27T01:41:44.823Z,0
2017-09-27T01:42:57.305Z,0
2017-09-27T01:44:09.789Z,0
2017-09-27T01:45:21.970Z,0
2017-09-27T01:46:34.438Z,0
2017-09-27T01:47:46.934Z,0
2017-09-27T01:48:58.804Z,0
2017-09-27T01:50:11.306Z,0
2017-09-27T01:51:23.770Z,0
2017-09-27T01:52:35.666Z,0
2017-09-27T01:53:47.562Z,0
2017-09-27T01:55:00.057Z,0
2017-09-27T01:56:11.929Z,0
2017-09-27T01:57:24.424Z,0
2017-09-27T01:58:36.618Z,0
2017-09-27T01:59:48.489Z,0
2017-09-27T02:01:00.986Z,0
2017-09-27T02:02:13.482Z,0
2017-09-27T02:03:25.678Z,0
2017-09-27T02:04:38.149Z,0
2017-09-27T02:05:50.619Z,0
2017-09-27T02:07:03.114Z,0
2017-09-27T02:08:15.610Z,0
2017-09-27T02:09:27.781Z,0
2017-09-27T02:10:40.302Z,0
2017-09-27T02:11:52.497Z,0
2017-09-27T02:13:04.971Z,0
2017-09-27T02:14:17.164Z,0
2017-09-27T02:15:29.059Z,0
2017-09-27T02:16:41.555Z,0
2017-09-27T02:17:54.081Z,0
2017-09-27T02:19:06.262Z,0
2017-09-27T02:20:18.741Z,0
2017-09-27T02:21:31.236Z,0
2017-09-27T02:22:43.707Z,0
2017-09-27T02:23:55.895Z,0
2017-09-27T02:25:08.075Z,0
2017-09-27T02:26:20.568Z,0
2017-09-27T02:27:32.740Z,0
2017-09-27T02:28:44.912Z,0
2017-09-27T02:29:57.407Z,0
2017-09-27T02:31:09.902Z,0
2017-09-27T02:32:22.081Z,0
2017-09-27T02:33:34.570Z,0
2017-09-27T02:34:47.319Z,0
2017-09-27T02:35:59.809Z,0
2017-09-27T02:37:11.981Z,0
2017-09-27T02:38:24.503Z,0
2017-09-27T02:39:36.697Z,0
2017-09-27T02:40:49.191Z,0
2017-09-27T02:42:01.688Z,0
2017-09-27T02:43:14.184Z,0
2017-09-27T02:44:26.356Z,0
2017-09-27T02:45:38.850Z,0
2017-09-27T02:46:51.044Z,0
2017-09-27T02:48:02.941Z,0
2017-09-27T02:49:15.111Z,0
2017-09-27T02:50:27.582Z,0
2017-09-27T02:51:39.777Z,0
2017-09-27T02:52:52.278Z,0
2017-09-27T02:54:04.748Z,0
2017-09-27T02:55:16.915Z,0
2017-09-27T02:56:29.428Z,0
2017-09-27T02:57:41.906Z,0
2017-09-27T02:58:54.401Z,0
2017-09-27T03:00:06.272Z,0
2017-09-27T03:01:18.468Z,0
2017-09-27T03:02:30.963Z,0
2017-09-27T03:03:43.435Z,0
2017-09-27T03:04:55.904Z,0
2017-09-27T03:06:08.400Z,0
2017-09-27T03:07:21.122Z,0
2017-09-27T03:08:33.616Z,0
2017-09-27T03:09:46.113Z,0
2017-09-27T03:10:58.609Z,0
2017-09-27T03:12:11.104Z,0
2017-09-27T03:13:23.600Z,0
2017-09-27T03:14:36.070Z,0
2017-09-27T03:15:47.965Z,0
2017-09-27T03:16:59.842Z,0
2017-09-27T03:18:12.349Z,0
2017-09-27T03:19:24.228Z,0
2017-09-27T03:20:36.416Z,0
2017-09-27T03:21:48.919Z,0
2017-09-27T03:23:01.114Z,0
2017-09-27T03:24:13.611Z,0
2017-09-27T03:25:26.108Z,0
2017-09-27T03:26:38.602Z,0
2017-09-27T03:27:51.122Z,0
2017-09-27T03:29:02.997Z,0
2017-09-27T03:30:14.890Z,0
2017-09-27T03:31:27.383Z,0
2017-09-27T03:32:39.557Z,0
2017-09-27T03:33:52.051Z,0
2017-09-27T03:35:04.547Z,0
2017-09-27T03:36:17.041Z,0
2017-09-27T03:37:29.565Z,0
2017-09-27T03:38:42.075Z,0
2017-09-27T03:39:53.953Z,0
2017-09-27T03:41:06.126Z,0
2017-09-27T03:42:18.319Z,0
2017-09-27T03:43:30.819Z,0
2017-09-27T03:44:43.011Z,0
2017-09-27T03:45:54.899Z,0
2017-09-27T03:47:07.378Z,0
2017-09-27T03:48:19.873Z,0
2017-09-27T03:49:31.744Z,0
2017-09-27T03:50:43.631Z,0
2017-09-27T03:51:56.134Z,0
2017-09-27T03:53:08.023Z,0
2017-09-27T03:54:20.518Z,0
2017-09-27T03:55:32.997Z,0
2017-09-27T03:56:44.867Z,0
2017-09-27T03:57:57.380Z,0
2017-09-27T03:59:09.558Z,0
2017-09-27T04:00:22.056Z,0
2017-09-27T04:01:34.525Z,0
2017-09-27T04:02:46.720Z,0
2017-09-27T04:03:59.217Z,0
2017-09-27T04:05:11.087Z,0
2017-09-27T04:06:23.558Z,0
2017-09-27T04:07:36.058Z,0
2017-09-27T04:08:48.248Z,0
2017-09-27T04:10:00.745Z,0
2017-09-27T04:11:13.241Z,0
2017-09-27T04:12:25.961Z,0
2017-09-27T04:13:38.156Z,0
2017-09-27T04:14:50.351Z,0
2017-09-27T04:16:02.551Z,0
2017-09-27T04:17:15.019Z,0
2017-09-27T04:18:27.514Z,0
2017-09-27T04:19:39.709Z,0
2017-09-27T04:20:51.579Z,0
2017-09-27T04:22:04.076Z,0
2017-09-27T04:23:16.264Z,0
2017-09-27T04:24:27.517Z,0
2017-09-27T04:25:40.013Z,0
2017-09-27T04:26:52.510Z,0
2017-09-27T04:28:04.679Z,0
2017-09-27T04:29:17.167Z,0
2017-09-27T04:30:29.045Z,0
2017-09-27T04:31:41.240Z,0
2017-09-27T04:32:53.736Z,0
2017-09-27T04:34:05.283Z,0
2017-09-27T04:35:17.477Z,0
2017-09-27T04:36:29.975Z,0
2017-09-27T04:37:42.143Z,0
2017-09-27T04:38:54.315Z,0
2017-09-27T04:40:05.603Z,0
2017-09-27T04:41:18.106Z,0
2017-09-27T04:42:30.602Z,0
2017-09-27T04:43:43.098Z,0
2017-09-27T04:44:55.519Z,0
2017-09-27T04:46:07.990Z,0
2017-09-27T04:47:20.485Z,0
2017-09-27T04:48:32.979Z,0
2017-09-27T04:49:45.476Z,0
2017-09-27T04:50:57.357Z,0
2017-09-27T04:52:09.535Z,0
2017-09-27T04:53:22.013Z,0
2017-09-27T04:54:34.508Z,0
2017-09-27T04:55:46.378Z,0
2017-09-27T04:56:58.267Z,0
2017-09-27T04:58:10.446Z,0
2017-09-27T04:59:22.966Z,0
2017-09-27T05:00:35.436Z,0
2017-09-27T05:01:47.907Z,5
2017-09-27T05:03:00.097Z,5
2017-09-27T05:04:12.623Z,5
2017-09-27T05:05:25.118Z,5
2017-09-27T05:06:37.615Z,10
2017-09-27T05:07:49.836Z,10
2017-09-27T05:09:02.330Z,15
2017-09-27T05:10:14.519Z,15
2017-09-27T05:11:27.023Z,15
2017-09-27T05:12:39.519Z,20
2017-09-27T05:13:51.992Z,20
2017-09-27T05:15:04.188Z,25
2017-09-27T05:16:16.356Z,25
2017-09-27T05:17:28.850Z,25
2017-09-27T05:18:41.047Z,30
2017-09-27T05:19:52.916Z,30
2017-09-27T05:21:04.787Z,30
2017-09-27T05:22:17.284Z,30
2017-09-27T05:23:28.855Z,30
2017-09-27T05:24:41.350Z,25
2017-09-27T05:25:53.521Z,30
2017-09-27T05:27:06.016Z,25
2017-09-27T05:28:18.212Z,30
2017-09-27T05:29:30.108Z,30
2017-09-27T05:30:41.995Z,30
2017-09-27T05:31:54.498Z,35
2017-09-27T05:33:06.969Z,35
2017-09-27T05:34:19.158Z,35
2017-09-27T05:35:31.035Z,35
2017-09-27T05:36:43.208Z,40
2017-09-27T05:37:55.702Z,40
2017-09-27T05:39:08.424Z,45
2017-09-27T05:40:20.921Z,50
2017-09-27T05:41:33.409Z,55
2017-09-27T05:42:45.609Z,65
2017-09-27T05:43:57.779Z,70
2017-09-27T05:45:09.951Z,75
2017-09-27T05:46:22.424Z,75
2017-09-27T05:47:34.893Z,75
2017-09-27T05:48:46.461Z,80
2017-09-27T05:49:58.962Z,80
2017-09-27T05:51:11.453Z,80
2017-09-27T05:52:23.641Z,85
2017-09-27T05:53:35.497Z,90
2017-09-27T05:54:47.991Z,90
2017-09-27T05:56:00.515Z,90
2017-09-27T05:57:13.001Z,95
2017-09-27T05:58:24.880Z,95
2017-09-27T05:59:37.074Z,95
2017-09-27T06:00:49.818Z,100
2017-09-27T06:02:02.315Z,105
2017-09-27T06:03:14.810Z,110
2017-09-27T06:04:27.306Z,110
2017-09-27T06:05:39.778Z,105
2017-09-27T06:06:52.272Z,120
2017-09-27T06:08:04.769Z,110
2017-09-27T06:09:16.664Z,115
2017-09-27T06:10:29.160Z,110
2017-09-27T06:11:41.358Z,130
2017-09-27T06:12:53.551Z,125
2017-09-27T06:14:05.163Z,120
2017-09-27T06:15:17.666Z,120
2017-09-27T06:16:30.137Z,120
2017-09-27T06:17:42.611Z,120
2017-09-27T06:18:55.104Z,125
2017-09-27T06:20:07.600Z,125
2017-09-27T06:21:20.096Z,120
2017-09-27T06:22:32.290Z,125
2017-09-27T06:23:44.486Z,125
2017-09-27T06:24:56.349Z,115
2017-09-27T06:26:08.228Z,135
2017-09-27T06:27:20.773Z,135
2017-09-27T06:28:33.268Z,125
2017-09-27T06:29:45.140Z,125
2017-09-27T06:30:57.636Z,115
2017-09-27T06:32:10.131Z,125
2017-09-27T06:33:22.302Z,125
2017-09-27T06:34:34.797Z,135
2017-09-27T06:35:46.994Z,130
2017-09-27T06:36:58.888Z,130
2017-09-27T06:38:11.390Z,155
2017-09-27T06:39:23.581Z,140
2017-09-27T06:40:36.076Z,140
2017-09-27T06:41:48.822Z,145
2017-09-27T06:43:01.317Z,145
2017-09-27T06:44:13.814Z,135
2017-09-27T06:45:25.984Z,120
2017-09-27T06:46:37.882Z,125
2017-09-27T06:47:49.775Z,145
2017-09-27T06:49:01.970Z,150
2017-09-27T06:50:14.158Z,160
2017-09-27T06:51:26.637Z,155
2017-09-27T06:52:39.132Z,180
2017-09-27T06:53:51.620Z,170
2017-09-27T06:55:03.473Z,145
2017-09-27T06:56:15.669Z,160
2017-09-27T06:57:28.139Z,180
2017-09-27T06:58:40.011Z,210
2017-09-27T06:59:52.481Z,190
2017-09-27T07:01:04.976Z,180
2017-09-27T07:02:17.492Z,215
2017-09-27T07:03:29.999Z,195
2017-09-27T07:04:42.497Z,180
2017-09-27T07:05:54.678Z,205
2017-09-27T07:07:07.159Z,175
2017-09-27T07:08:19.651Z,190
2017-09-27T07:09:32.153Z,200
2017-09-27T07:10:44.320Z,200
2017-09-27T07:11:56.213Z,200
2017-09-27T07:13:08.408Z,210
2017-09-27T07:14:20.904Z,165
2017-09-27T07:15:33.399Z,185
2017-09-27T07:16:45.620Z,225
2017-09-27T07:17:57.817Z,230
2017-09-27T07:19:10.314Z,220
2017-09-27T07:20:22.207Z,230
2017-09-27T07:21:34.395Z,215
2017-09-27T07:22:46.579Z,220
2017-09-27T07:23:58.448Z,220
2017-09-27T07:25:10.618Z,225
2017-09-27T07:26:23.112Z,205
2017-09-27T07:27:35.607Z,190
2017-09-27T07:28:48.078Z,210
2017-09-27T07:30:00.247Z,205
2017-09-27T07:31:12.436Z,205
2017-09-27T07:32:24.956Z,185
2017-09-27T07:33:37.452Z,180
2017-09-27T07:34:49.631Z,165
2017-09-27T07:36:01.518Z,195
2017-09-27T07:37:13.697Z,170
2017-09-27T07:38:26.143Z,205
2017-09-27T07:39:38.642Z,190
2017-09-27T07:40:50.834Z,185
2017-09-27T07:42:03.329Z,215
2017-09-27T07:43:14.900Z,200
2017-09-27T07:44:27.095Z,230
2017-09-27T07:45:38.967Z,200
2017-09-27T07:46:51.438Z,225
2017-09-27T07:48:03.933Z,280
2017-09-27T07:49:16.129Z,275
2017-09-27T07:50:36.698Z,315
2017-09-27T07:51:48.886Z,340
2017-09-27T07:53:01.367Z,325
2017-09-27T07:54:13.259Z,370
2017-09-27T07:55:25.432Z,380
2017-09-27T07:56:37.926Z,400
2017-09-27T07:57:50.122Z,380
2017-09-27T07:59:02.319Z,445
2017-09-27T08:00:14.489Z,310
2017-09-27T08:01:27.014Z,285
2017-09-27T08:02:39.180Z,310
2017-09-27T08:03:51.350Z,270
2017-09-27T08:05:03.553Z,315
2017-09-27T08:06:16.049Z,300
2017-09-27T08:07:28.539Z,255
2017-09-27T08:08:41.038Z,185
2017-09-27T08:09:53.560Z,285
2017-09-27T08:11:06.050Z,430
2017-09-27T08:12:18.251Z,335
2017-09-27T08:13:30.741Z,305
2017-09-27T08:14:43.237Z,255
2017-09-27T08:15:55.733Z,230
2017-09-27T08:17:08.230Z,210
2017-09-27T08:18:20.423Z,260
2017-09-27T08:19:32.622Z,235
2017-09-27T08:20:45.119Z,315
2017-09-27T08:21:57.610Z,440
2017-09-27T08:23:09.805Z,435
2017-09-27T08:24:22.301Z,300
2017-09-27T08:25:34.826Z,275
2017-09-27T08:26:47.318Z,295
2017-09-27T08:27:59.208Z,320
2017-09-27T08:29:11.410Z,285
2017-09-27T08:30:23.906Z,285
2017-09-27T08:31:36.442Z,235
2017-09-27T08:32:48.627Z,245
2017-09-27T08:34:00.793Z,350
2017-09-27T08:35:12.663Z,310
2017-09-27T08:36:25.150Z,220
2017-09-27T08:37:37.653Z,210
2017-09-27T08:38:50.149Z,185
2017-09-27T08:40:02.022Z,190
2017-09-27T08:41:13.894Z,205
2017-09-27T08:42:25.762Z,220
2017-09-27T08:43:37.658Z,195
2017-09-27T08:44:50.153Z,220
2017-09-27T08:46:02.349Z,240
2017-09-27T08:47:14.845Z,330
2017-09-27T08:48:27.318Z,270
2017-09-27T08:49:39.511Z,230
2017-09-27T08:50:52.010Z,245
2017-09-27T08:52:03.894Z,230
2017-09-27T08:53:15.773Z,215
2017-09-27T08:54:27.042Z,225
2017-09-27T08:55:39.239Z,210
2017-09-27T08:56:51.726Z,215
2017-09-27T08:58:03.931Z,230
2017-09-27T08:59:16.376Z,300
2017-09-27T09:00:28.272Z,265
2017-09-27T09:01:40.142Z,265
2017-09-27T09:02:52.664Z,295
2017-09-27T09:04:04.533Z,315
2017-09-27T09:05:16.430Z,310
2017-09-27T09:06:28.925Z,335
2017-09-27T09:07:41.421Z,365
2017-09-27T09:08:53.917Z,380
2017-09-27T09:10:06.412Z,335
2017-09-27T09:11:18.608Z,365
2017-09-27T09:12:30.802Z,425
2017-09-27T09:13:43.328Z,665
2017-09-27T09:14:55.518Z,610
2017-09-27T09:16:08.015Z,440
2017-09-27T09:17:20.510Z,535
2017-09-27T09:18:32.398Z,455
2017-09-27T09:19:44.902Z,490
2017-09-27T09:20:57.422Z,460
2017-09-27T09:22:09.619Z,315
2017-09-27T09:23:21.506Z,315
2017-09-27T09:24:33.388Z,435
2017-09-27T09:25:45.881Z,425
2017-09-27T09:26:58.393Z,515
2017-09-27T09:28:10.872Z,670
2017-09-27T09:29:23.371Z,595
2017-09-27T09:30:35.280Z,570
2017-09-27T09:31:47.158Z,625
2017-09-27T09:32:59.373Z,530
2017-09-27T09:34:11.276Z,720
2017-09-27T09:35:23.770Z,575
2017-09-27T09:36:35.358Z,500
2017-09-27T09:37:47.540Z,710
2017-09-27T09:38:59.432Z,745
2017-09-27T09:40:11.627Z,800
2017-09-27T09:41:24.124Z,740
2017-09-27T09:42:36.870Z,555
2017-09-27T09:43:49.367Z,665
2017-09-27T09:45:01.878Z,660
2017-09-27T09:46:14.080Z,775
2017-09-27T09:47:25.978Z,680
2017-09-27T09:48:38.473Z,925
2017-09-27T09:49:50.969Z,845
2017-09-27T09:51:03.141Z,660
2017-09-27T09:52:15.635Z,970
2017-09-27T09:53:28.131Z,700
2017-09-27T09:54:40.019Z,730
2017-09-27T09:55:52.196Z,545
2017-09-27T09:57:04.094Z,495
2017-09-27T09:58:16.580Z,620
2017-09-27T09:59:28.460Z,415
2017-09-27T10:00:40.654Z,570
2017-09-27T10:01:53.149Z,485
2017-09-27T10:03:05.645Z,490
2017-09-27T10:04:18.084Z,455
2017-09-27T10:05:30.262Z,500
2017-09-27T10:06:42.457Z,515
2017-09-27T10:07:54.353Z,580
2017-09-27T10:09:06.549Z,645
2017-09-27T10:10:19.046Z,745
2017-09-27T10:11:31.540Z,500
2017-09-27T10:12:43.436Z,535
2017-09-27T10:13:55.633Z,490
2017-09-27T10:15:07.532Z,575
2017-09-27T10:16:20.023Z,525
2017-09-27T10:17:32.218Z,555
2017-09-27T10:18:44.714Z,480
2017-09-27T10:19:56.602Z,535
2017-09-27T10:21:09.106Z,465
2017-09-27T10:22:21.309Z,450
2017-09-27T10:23:33.847Z,350
2017-09-27T10:24:46.343Z,410
2017-09-27T10:25:58.844Z,365
2017-09-27T10:27:11.334Z,335
2017-09-27T10:28:23.830Z,350
2017-09-27T10:29:36.328Z,355
2017-09-27T10:30:48.496Z,420
2017-09-27T10:32:00.690Z,400
2017-09-27T10:33:13.188Z,380
2017-09-27T10:34:25.681Z,410
2017-09-27T10:35:37.878Z,500
2017-09-27T10:36:50.413Z,450
2017-09-27T10:38:01.995Z,445
2017-09-27T10:39:14.182Z,390
2017-09-27T10:40:26.686Z,330
2017-09-27T10:41:39.182Z,325
2017-09-27T10:42:51.051Z,330
2017-09-27T10:44:03.549Z,320
2017-09-27T10:45:16.044Z,330
2017-09-27T10:46:28.581Z,470
2017-09-27T10:47:41.076Z,620
2017-09-27T10:48:53.572Z,385
2017-09-27T10:50:05.452Z,345
2017-09-27T10:51:17.963Z,465
2017-09-27T10:52:30.467Z,480
2017-09-27T10:53:42.963Z,450
2017-09-27T10:54:55.132Z,445
2017-09-27T10:56:07.303Z,570
2017-09-27T10:57:19.499Z,600
2017-09-27T10:58:31.674Z,595
2017-09-27T10:59:44.167Z,535
2017-09-27T11:00:56.775Z,695
2017-09-27T11:02:09.306Z,710
2017-09-27T11:03:21.557Z,550
2017-09-27T11:04:34.100Z,665
2017-09-27T11:05:46.661Z,610
2017-09-27T11:06:58.293Z,600
2017-09-27T11:08:10.889Z,720
2017-09-27T11:09:23.456Z,770
2017-09-27T11:10:35.978Z,720
2017-09-27T11:11:48.223Z,840
2017-09-27T11:13:00.093Z,885
2017-09-27T11:14:12.289Z,660
2017-09-27T11:15:24.809Z,920
2017-09-27T11:16:37.305Z,985
2017-09-27T11:17:49.179Z,1010
2017-09-27T11:19:01.051Z,1035
2017-09-27T11:20:13.566Z,885
2017-09-27T11:21:25.763Z,800
2017-09-27T11:22:37.960Z,810
2017-09-27T11:23:50.478Z,695
2017-09-27T11:25:02.977Z,635
2017-09-27T11:26:15.496Z,630
2017-09-27T11:27:27.991Z,740
2017-09-27T11:28:40.487Z,715
2017-09-27T11:29:52.681Z,840
2017-09-27T11:31:04.277Z,995
2017-09-27T11:32:16.473Z,1035
2017-09-27T11:33:28.970Z,925
2017-09-27T11:34:41.489Z,820
2017-09-27T11:35:53.687Z,755
2017-09-27T11:37:05.907Z,790
2017-09-27T11:38:18.402Z,815
2017-09-27T11:39:30.900Z,685
2017-09-27T11:40:43.393Z,805
2017-09-27T11:41:55.289Z,700
2017-09-27T11:43:07.486Z,525
2017-09-27T11:44:18.756Z,565
2017-09-27T11:45:31.325Z,670
2017-09-27T11:46:43.831Z,550
2017-09-27T11:47:56.317Z,615
2017-09-27T11:49:08.818Z,610
2017-09-27T11:50:20.984Z,495
2017-09-27T11:51:33.179Z,560
2017-09-27T11:52:45.675Z,490
2017-09-27T11:53:57.871Z,515
2017-09-27T11:55:10.069Z,700
2017-09-27T11:56:22.278Z,750
2017-09-27T11:57:34.458Z,775
2017-09-27T11:58:46.653Z,895
2017-09-27T11:59:58.850Z,1020
2017-09-27T12:01:11.345Z,955
2017-09-27T12:02:23.214Z,845
2017-09-27T12:03:34.786Z,700
2017-09-27T12:04:47.284Z,730
2017-09-27T12:05:59.170Z,785
2017-09-27T12:07:11.373Z,720
2017-09-27T12:08:23.269Z,750
2017-09-27T12:09:34.540Z,775
2017-09-27T12:10:46.713Z,620
2017-09-27T12:11:57.998Z,575
2017-09-27T12:13:10.202Z,545
2017-09-27T12:14:22.698Z,555
2017-09-27T12:15:35.196Z,640
2017-09-27T12:16:47.090Z,695
2017-09-27T12:17:59.027Z,740
2017-09-27T12:19:11.205Z,840
2017-09-27T12:20:23.101Z,800
2017-09-27T12:21:34.675Z,770
2017-09-27T12:22:46.866Z,890
2017-09-27T12:23:59.361Z,925
2017-09-27T12:25:11.258Z,980
2017-09-27T12:26:23.455Z,830
2017-09-27T12:27:35.949Z,760
2017-09-27T12:28:47.848Z,745
2017-09-27T12:30:00.366Z,735
2017-09-27T12:31:12.863Z,755
2017-09-27T12:32:24.749Z,720
2017-09-27T12:33:36.628Z,705
2017-09-27T12:34:48.824Z,690
2017-09-27T12:36:00.720Z,680
2017-09-27T12:37:13.218Z,635
2017-09-27T12:38:25.428Z,615
2017-09-27T12:39:37.632Z,660
2017-09-27T12:40:50.126Z,675
2017-09-27T12:42:02.023Z,670
2017-09-27T12:43:14.194Z,665
2017-09-27T12:44:26.389Z,635
2017-09-27T12:45:38.584Z,630
2017-09-27T12:46:51.081Z,630
2017-09-27T12:48:03.575Z,645
2017-09-27T12:49:15.790Z,630
2017-09-27T12:50:28.291Z,625
2017-09-27T12:51:40.788Z,625
2017-09-27T12:52:53.283Z,605
2017-09-27T12:54:05.479Z,590
2017-09-27T12:55:17.374Z,545
2017-09-27T12:56:28.971Z,485
2017-09-27T12:57:40.865Z,460
2017-09-27T12:58:53.065Z,420
2017-09-27T13:00:04.958Z,415
2017-09-27T13:01:17.454Z,455
2017-09-27T13:02:29.974Z,450
2017-09-27T13:03:42.169Z,415
2017-09-27T13:04:54.664Z,400
2017-09-27T13:06:06.561Z,385
2017-09-27T13:07:18.431Z,355
2017-09-27T13:08:30.302Z,375
2017-09-27T13:09:42.798Z,415
2017-09-27T13:10:54.993Z,420
2017-09-27T13:12:07.190Z,420
2017-09-27T13:13:19.685Z,415
2017-09-27T13:14:31.882Z,405
2017-09-27T13:15:44.125Z,405
2017-09-27T13:16:56.623Z,405
2017-09-27T13:18:09.118Z,410
2017-09-27T13:19:20.716Z,430
2017-09-27T13:20:32.609Z,445
2017-09-27T13:21:44.797Z,465
2017-09-27T13:22:56.993Z,495
2017-09-27T13:24:09.496Z,480
2017-09-27T13:25:21.392Z,470
2017-09-27T13:26:33.263Z,455
2017-09-27T13:27:45.756Z,440
2017-09-27T13:28:57.953Z,440
2017-09-27T13:30:10.148Z,455
2017-09-27T13:31:22.344Z,465
2017-09-27T13:32:34.840Z,475
2017-09-27T13:33:47.330Z,465
2017-09-27T13:34:59.531Z,460
2017-09-27T13:36:11.727Z,470
2017-09-27T13:37:23.624Z,485
2017-09-27T13:38:35.821Z,505
2017-09-27T13:39:48.317Z,515
2017-09-27T13:41:00.512Z,510
2017-09-27T13:42:13.006Z,505
2017-09-27T13:43:25.501Z,505
2017-09-27T13:44:37.697Z,490
2017-09-27T13:45:49.892Z,500
2017-09-27T13:47:02.389Z,515
2017-09-27T13:48:14.584Z,535
2017-09-27T13:49:27.080Z,530
2017-09-27T13:50:39.575Z,500
2017-09-27T13:51:51.770Z,465
2017-09-27T13:53:03.359Z,465
2017-09-27T13:54:15.555Z,350
2017-09-27T13:55:28.036Z,345
2017-09-27T13:56:40.228Z,385
2017-09-27T13:57:52.423Z,390
2017-09-27T13:59:04.322Z,395
2017-09-27T14:00:16.816Z,425
2017-09-27T14:01:29.342Z,415
2017-09-27T14:02:41.524Z,380
2017-09-27T14:03:54.019Z,355
2017-09-27T14:05:06.522Z,370
2017-09-27T14:06:18.719Z,385
2017-09-27T14:07:30.620Z,380
2017-09-27T14:08:43.114Z,360
2017-09-27T14:09:55.306Z,340
2017-09-27T14:11:07.500Z,325
2017-09-27T14:12:19.682Z,325
2017-09-27T14:13:32.192Z,315
2017-09-27T14:14:44.389Z,305
2017-09-27T14:15:56.908Z,295
2017-09-27T14:17:09.105Z,275
2017-09-27T14:18:21.599Z,270
2017-09-27T14:19:33.470Z,275
2017-09-27T14:20:45.967Z,275
2017-09-27T14:21:58.462Z,285
2017-09-27T14:23:10.633Z,295
2017-09-27T14:24:22.806Z,285
2017-09-27T14:25:34.999Z,285
2017-09-27T14:26:46.869Z,285
2017-09-27T14:27:59.066Z,285
2017-09-27T14:29:11.261Z,285
2017-09-27T14:30:23.158Z,275
2017-09-27T14:31:35.352Z,265
2017-09-27T14:32:47.875Z,265
2017-09-27T14:33:59.444Z,250
2017-09-27T14:35:11.314Z,255
2017-09-27T14:36:23.811Z,250
2017-09-27T14:37:36.311Z,265
2017-09-27T14:38:48.180Z,265
2017-09-27T14:40:00.375Z,265
2017-09-27T14:41:12.568Z,265
2017-09-27T14:42:24.740Z,255
2017-09-27T14:43:36.935Z,265
2017-09-27T14:44:49.428Z,270
2017-09-27T14:46:01.017Z,265
2017-09-27T14:47:12.920Z,265
2017-09-27T14:48:25.415Z,260
2017-09-27T14:49:37.611Z,250
2017-09-27T14:50:49.815Z,250
2017-09-27T14:52:01.710Z,250
2017-09-27T14:53:13.926Z,240
2017-09-27T14:54:26.124Z,225
2017-09-27T14:55:38.617Z,220
2017-09-27T14:56:51.130Z,240
2017-09-27T14:58:18.524Z,250
2017-09-27T14:59:31.043Z,245
2017-09-27T15:00:43.552Z,245
2017-09-27T15:01:56.061Z,245
2017-09-27T15:03:07.990Z,255
2017-09-27T15:04:20.513Z,255
2017-09-27T15:05:32.730Z,255
2017-09-27T15:06:45.226Z,250
2017-09-27T15:07:57.721Z,250
2017-09-27T15:09:10.244Z,250
2017-09-27T15:10:22.461Z,240
2017-09-27T15:11:35.011Z,230
2017-09-27T15:12:47.509Z,220
2017-09-27T15:14:00.004Z,205
2017-09-27T15:15:12.526Z,190
2017-09-27T15:16:25.017Z,180
2017-09-27T15:17:37.537Z,170
2017-09-27T15:18:50.077Z,170
2017-09-27T15:20:02.230Z,170
2017-09-27T15:21:14.764Z,175
2017-09-27T15:22:26.343Z,175
2017-09-27T15:23:38.540Z,180
2017-09-27T15:24:50.761Z,195
2017-09-27T15:26:02.056Z,200
2017-09-27T15:27:14.578Z,205
2017-09-27T15:28:26.772Z,205
2017-09-27T15:29:38.969Z,195
2017-09-27T15:30:51.470Z,190
2017-09-27T15:32:03.703Z,195
2017-09-27T15:33:16.207Z,205
2017-09-27T15:34:28.400Z,210
2017-09-27T15:35:40.897Z,205
2017-09-27T15:36:53.391Z,200
2017-09-27T15:38:04.988Z,205
2017-09-27T15:39:17.211Z,200
2017-09-27T15:40:29.704Z,205
2017-09-27T15:41:42.178Z,205
2017-09-27T15:42:54.396Z,200
2017-09-27T15:44:06.890Z,190
2017-09-27T15:45:19.088Z,185
2017-09-27T15:46:31.326Z,180
2017-09-27T15:47:43.554Z,175
2017-09-27T15:48:55.748Z,165
2017-09-27T15:50:07.967Z,160
2017-09-27T15:51:20.165Z,155
2017-09-27T15:52:32.687Z,150
2017-09-27T15:53:45.187Z,150
2017-09-27T15:54:57.748Z,145
2017-09-27T15:56:09.953Z,145
2017-09-27T15:57:22.142Z,140
2017-09-27T15:58:34.057Z,140
2017-09-27T15:59:46.265Z,140
2017-09-27T16:00:58.481Z,135
2017-09-27T16:02:10.694Z,130
2017-09-27T16:03:22.274Z,125
2017-09-27T16:04:33.884Z,125
2017-09-27T16:05:46.106Z,115
2017-09-27T16:06:58.036Z,110
2017-09-27T16:08:10.247Z,100
2017-09-27T16:09:22.451Z,95
2017-09-27T16:10:34.676Z,95
2017-09-27T16:11:46.893Z,90
2017-09-27T16:12:59.411Z,85
2017-09-27T16:14:11.315Z,85
2017-09-27T16:15:23.227Z,80
2017-09-27T16:16:34.531Z,80
2017-09-27T16:17:47.067Z,80
2017-09-27T16:18:58.982Z,80
2017-09-27T16:20:11.460Z,80
2017-09-27T16:21:23.682Z,75
2017-09-27T16:22:35.895Z,75
2017-09-27T16:23:48.402Z,75
2017-09-27T16:25:00.923Z,70
2017-09-27T16:26:13.419Z,70
2017-09-27T16:27:25.936Z,65
2017-09-27T16:28:38.431Z,65
2017-09-27T16:29:50.950Z,60
2017-09-27T16:31:02.564Z,55
2017-09-27T16:32:14.761Z,50
2017-09-27T16:33:26.987Z,50
2017-09-27T16:34:38.885Z,45
2017-09-27T16:35:51.381Z,45
2017-09-27T16:37:03.592Z,40
2017-09-27T16:38:16.097Z,35
2017-09-27T16:39:28.621Z,30
2017-09-27T16:40:40.830Z,30
2017-09-27T16:41:53.330Z,25
2017-09-27T16:43:04.919Z,20
2017-09-27T16:44:17.428Z,20
2017-09-27T16:45:29.619Z,15
2017-09-27T16:46:42.118Z,15
2017-09-27T16:47:54.011Z,10
2017-09-27T16:49:06.232Z,10
2017-09-27T16:50:18.427Z,10
2017-09-27T16:51:30.326Z,10
2017-09-27T16:52:42.519Z,5
2017-09-27T16:53:54.437Z,5
2017-09-27T16:55:06.976Z,5
2017-09-27T16:56:18.881Z,5
2017-09-27T16:57:31.401Z,5
2017-09-27T16:58:43.323Z,5
2017-09-27T16:59:55.817Z,0